Caneyville, Kentucky
Current Conditions -  °F | °C
As of 3:35 AM on Tuesday 21 Oct 2014 (Local Time) from KBWG Reporting Station
Moderate Fog Moderate Fog  
Wind Chill: 49°   Ceiling: Unl
Heat Index: 49°   Visibility: 0.5mi
Dew Point: 46°   Wind: 0mph
Humidity: 90%   Direction: NA
Pressure: 29.99"   Gusts: NA
Location:  37.42°N, 86.49°W
Report Text: KBWG 210835Z AUTO 00000KT 1/2SM FG CLR 09/08 A2999 RMK AO2 T00940078
Loading
Personal Weather Stations






























Interactive Weather Map
Tropical Storm Tracking
New forecast layout! Learn more

10-Day Weather Forecast

Advertisements
Track Severe Weather on mobile